| time (UTC) | temp F | wind direction | speed knots | gust knots | rain 1hr in | rain 24hr in | rain mn in | humidity % | barometer mb |
| 20260502235048 | 69 | 116 | 7.8 | 11.3 | 0.01 | 0.02 | 0.02 | 81 | 1012.6 |
| 20260502234547 | 69 | 113 | 7.0 | 10.4 | 0.01 | 0.02 | 0.02 | 81 | 1012.5 |
| 20260502234046 | 69 | 106 | 6.1 | 10.4 | 0.01 | 0.02 | 0.02 | 81 | 1012.5 |
| 20260502233546 | 69 | 88 | 6.1 | 9.6 | 0.01 | 0.02 | 0.02 | 81 | 1012.4 |
| 20260502233046 | 68 | 86 | 4.3 | 9.6 | 0.01 | 0.02 | 0.02 | 83 | 1012.4 |
| 20260502232545 | 68 | 107 | 5.2 | 9.6 | 0.01 | 0.02 | 0.02 | 83 | 1012.3 |
| 20260502232046 | 68 | 119 | 4.3 | 8.7 | 0.01 | 0.02 | 0.02 | 85 | 1012.4 |
| 20260502231607 | 68 | 128 | 5.2 | 7.8 | 0.01 | 0.02 | 0.02 | 85 | 1012.4 |
| 20260502231045 | 69 | 133 | 4.3 | 7.8 | 0.01 | 0.02 | 0.02 | 85 | 1012.3 |
| 20260502230545 | 69 | 127 | 4.3 | 7.8 | 0.01 | 0.02 | 0.02 | 85 | 1012.3 |
| 20260502230045 | 69 | 118 | 4.3 | 9.6 | 0.01 | 0.02 | 0.02 | 85 | 1012.4 |
| 20260502225545 | 69 | 118 | 6.1 | 9.6 | 0.02 | 0.02 | 0.02 | 84 | 1012.4 |
| 20260502225044 | 69 | 116 | 5.2 | 8.7 | 0.01 | 0.01 | 0.01 | 85 | 1012.3 |
| 20260502224554 | 69 | 106 | 2.6 | 5.2 | 0.01 | 0.01 | 0.01 | 86 | 1012.3 |
| 20260502224044 | 69 | 99 | 2.6 | 6.1 | 0.01 | 0.01 | 0.01 | 86 | 1012.3 |
| 20260502223544 | 69 | 74 | 2.6 | 7.0 | 0.01 | 0.01 | 0.01 | 85 | 1012.3 |
| 20260502223044 | 69 | 57 | 3.5 | 7.0 | 0.01 | 0.01 | 0.01 | 85 | 1012.4 |
| 20260502222544 | 70 | 100 | 3.5 | 6.1 | 0.01 | 0.01 | 0.01 | 85 | 1012.4 |
| 20260502222042 | 70 | 87 | 2.6 | 5.2 | 0.01 | 0.01 | 0.01 | 85 | 1012.5 |
| 20260502221546 | 70 | 119 | 2.6 | 7.0 | 0.01 | 0.01 | 0.01 | 84 | 1012.5 |
| 20260502221042 | 70 | 119 | 4.3 | 7.0 | 0.01 | 0.01 | 0.01 | 83 | 1012.4 |
| 20260502220542 | 70 | 75 | 2.6 | 7.0 | 0.01 | 0.01 | 0.01 | 84 | 1012.3 |
| 20260502220048 | 69 | 140 | 2.6 | 7.0 | 0.01 | 0.01 | 0.01 | 84 | 1012.2 |
| 20260502215544 | 69 | 100 | 2.6 | 5.2 | 0.00 | 0.00 | 0.00 | 84 | 1012.2 |
| 20260502215042 | 69 | 130 | 2.6 | 5.2 | 0.00 | 0.00 | 0.00 | 85 | 1012.2 |
| 20260502214546 | 69 | 262 | 0.0 | 2.6 | 0.00 | 0.00 | 0.00 | 85 | 1012.2 |
| 20260502214041 | 69 | 257 | 0.9 | 2.6 | 0.00 | 0.00 | 0.00 | 84 | 1012.2 |
| 20260502213541 | 70 | 258 | 0.9 | 2.6 | 0.00 | 0.00 | 0.00 | 84 | 1012.0 |
| 20260502213041 | 71 | 245 | 0.9 | 3.5 | 0.00 | 0.00 | 0.00 | 82 | 1011.9 |
| 20260502212541 | 72 | 244 | 2.6 | 3.5 | 0.00 | 0.00 | 0.00 | 79 | 1011.9 |
| 20260502212041 | 72 | 186 | 0.9 | 2.6 | 0.00 | 0.00 | 0.00 | 74 | 1011.9 |
| 20260502211541 | 73 | 167 | 0.9 | 6.1 | 0.00 | 0.00 | 0.00 | 73 | 1012.1 |
| 20260502211039 | 73 | 138 | 2.6 | 6.1 | 0.00 | 0.00 | 0.00 | 73 | 1012.1 |
| 20260502210539 | 73 | 145 | 0.9 | 6.1 | 0.00 | 0.00 | 0.00 | 72 | 1012.1 |
| 20260502210041 | 73 | 116 | 3.5 | 7.8 | 0.00 | 0.00 | 0.00 | 68 | 1011.9 |
| 20260502205542 | 73 | 88 | 2.6 | 7.8 | 0.00 | 0.00 | 0.00 | 69 | 1011.9 |
| 20260502205040 | 73 | 107 | 3.5 | 7.8 | 0.00 | 0.00 | 0.00 | 70 | 1011.8 |
| 20260502204542 | 73 | 127 | 3.5 | 7.0 | 0.00 | 0.00 | 0.00 | 72 | 1011.8 |
| 20260502204038 | 73 | 199 | 0.9 | 1.7 | 0.00 | 0.00 | 0.00 | 74 | 1011.9 |
| 20260502203538 | 73 | 184 | 0.0 | 2.6 | 0.00 | 0.00 | 0.00 | 75 | 1011.8 |
| 20260502203041 | 73 | 309 | 0.0 | 4.3 | 0.00 | 0.00 | 0.00 | 76 | 1011.8 |
| 20260502202539 | 73 | 132 | 0.9 | 6.1 | 0.00 | 0.00 | 0.00 | 74 | 1011.7 |
| 20260502202037 | 73 | 192 | 3.5 | 6.1 | 0.00 | 0.00 | 0.00 | 75 | 1011.6 |
| 20260502201637 | 73 | 209 | 2.6 | 7.8 | 0.00 | 0.00 | 0.00 | 75 | 1011.5 |
| 20260502201036 | 73 | 180 | 1.7 | 6.1 | 0.00 | 0.00 | 0.00 | 75 | 1011.9 |
| 20260502200536 | 73 | 169 | 1.7 | 7.8 | 0.00 | 0.00 | 0.00 | 76 | 1011.9 |
| 20260502200037 | 72 | 222 | 1.7 | 7.8 | 0.00 | 0.00 | 0.00 | 74 | 1012.0 |
| 20260502195536 | 72 | 206 | 3.5 | 7.8 | 0.00 | 0.00 | 0.00 | 76 | 1012.0 |
| 20260502195035 | 71 | 130 | 2.6 | 4.3 | 0.00 | 0.00 | 0.00 | 78 | 1011.8 |
| 20260502194537 | 71 | 182 | 1.7 | 3.5 | 0.00 | 0.00 | 0.00 | 80 | 1011.8 |
| 20260502194036 | 71 | 195 | 0.0 | 7.0 | 0.00 | 0.00 | 0.00 | 81 | 1012.0 |
| 20260502193535 | 71 | 183 | 0.9 | 7.0 | 0.00 | 0.00 | 0.00 | 81 | 1012.0 |
| 20260502193036 | 71 | 244 | 0.9 | 6.1 | 0.00 | 0.00 | 0.00 | 80 | 1012.0 |
| 20260502192535 | 72 | 257 | 1.7 | 11.3 | 0.00 | 0.00 | 0.00 | 78 | 1012.0 |
| 20260502192034 | 73 | 247 | 5.2 | 12.2 | 0.00 | 0.00 | 0.00 | 75 | 1012.2 |
| 20260502191543 | 76 | 273 | 5.2 | 12.2 | 0.00 | 0.00 | 0.00 | 69 | 1012.1 |
| 20260502191033 | 77 | 308 | 1.7 | 17.4 | 0.00 | 0.00 | 0.00 | 67 | 1012.1 |
| 20260502190534 | 78 | 311 | 5.2 | 17.4 | 0.00 | 0.00 | 0.00 | 68 | 1011.9 |
| 20260502190034 | 78 | 5 | 0.9 | 4.3 | 0.00 | 0.01 | 0.00 | 70 | 1011.7 |
| 20260502185532 | 78 | 271 | 0.9 | 4.3 | 0.00 | 0.01 | 0.00 | 71 | 1011.8 |
| 20260502185035 | 78 | 312 | 1.7 | 4.3 | 0.00 | 0.01 | 0.00 | 71 | 1012.1 |
| 20260502184533 | 78 | 307 | 1.7 | 7.0 | 0.00 | 0.01 | 0.00 | 70 | 1012.1 |
| 20260502184032 | 79 | 282 | 1.7 | 7.0 | 0.00 | 0.01 | 0.00 | 69 | 1011.9 |
| 20260502183534 | 80 | 232 | 2.6 | 7.8 | 0.00 | 0.01 | 0.00 | 67 | 1012.0 |
| 20260502183034 | 82 | 307 | 4.3 | 7.8 | 0.00 | 0.01 | 0.00 | 63 | 1012.2 |
| 20260502182533 | 83 | 17 | 3.5 | 12.2 | 0.00 | 0.01 | 0.00 | 54 | 1012.2 |
| 20260502182030 | 83 | 69 | 1.7 | 13.0 | 0.00 | 0.01 | 0.00 | 57 | 1012.0 |
| 20260502181529 | 82 | 134 | 6.1 | 13.0 | 0.00 | 0.01 | 0.00 | 57 | 1011.9 |
| 20260502181028 | 82 | 99 | 7.0 | 11.3 | 0.00 | 0.01 | 0.00 | 57 | 1012.1 |
| 20260502180530 | 82 | 65 | 6.1 | 13.0 | 0.00 | 0.01 | 0.00 | 58 | 1012.3 |
| 20260502164015 | 80 | 96 | 1.7 | 3.5 | 0.00 | 0.01 | 0.00 | 63 | 1013.1 |
| 20260502163516 | 80 | 9 | 0.9 | 3.5 | 0.00 | 0.01 | 0.00 | 64 | 1013.1 |
| 20260502163027 | 80 | 343 | 0.9 | 3.5 | 0.00 | 0.01 | 0.00 | 62 | 1013.1 |
| 20260502162516 | 80 | 76 | 0.9 | 3.5 | 0.00 | 0.01 | 0.00 | 63 | 1013.4 |
| 20260502162015 | 80 | 309 | 0.0 | 3.5 | 0.00 | 0.01 | 0.00 | 62 | 1013.5 |
| 20260502161517 | 80 | 5 | 0.0 | 2.6 | 0.00 | 0.01 | 0.00 | 63 | 1013.5 |
| 20260502161021 | 79 | 341 | 0.0 | 11.3 | 0.00 | 0.01 | 0.00 | 63 | 1013.6 |
| 20260502160514 | 79 | 80 | 3.5 | 11.3 | 0.00 | 0.01 | 0.00 | 62 | 1013.4 |
| 20260502160136 | 80 | 96 | 6.1 | 11.3 | 0.00 | 0.01 | 0.00 | 62 | 1013.4 |
| 20260502152007 | 78 | 115 | 3.5 | 15.6 | 0.00 | 0.01 | 0.00 | 66 | 1013.8 |
| 20260502151507 | 78 | 40 | 8.7 | 15.6 | 0.00 | 0.01 | 0.00 | 65 | 1013.9 |
| 20260502151005 | 78 | 67 | 7.0 | 15.6 | 0.00 | 0.01 | 0.00 | 66 | 1013.9 |
| 20260502150502 | 78 | 58 | 9.6 | 15.6 | 0.00 | 0.01 | 0.00 | 68 | 1014.1 |
| 20260502130529 | 72 | 131 | 1.7 | 7.0 | 0.00 | 0.01 | 0.00 | 80 | 1013.1 |
| 20260502123522 | 69 | 96 | 2.6 | 7.8 | 0.00 | 0.01 | 0.00 | 85 | 1012.8 |
| 20260502123030 | 68 | 126 | 2.6 | 4.3 | 0.00 | 0.01 | 0.00 | 87 | 1012.9 |
| 20260502122519 | 67 | 107 | 0.0 | 1.7 | 0.00 | 0.01 | 0.00 | 88 | 1012.8 |
| 20260502122024 | 67 | 74 | 0.9 | 2.6 | 0.00 | 0.01 | 0.00 | 88 | 1012.8 |
| 20260502121518 | 67 | 74 | 0.9 | 2.6 | 0.00 | 0.01 | 0.00 | 89 | 1012.9 |
| 20260502121017 | 67 | 95 | 0.0 | 1.7 | 0.00 | 0.01 | 0.00 | 89 | 1012.9 |
| 20260502120519 | 67 | 95 | 0.0 | 0.9 | 0.00 | 0.01 | 0.00 | 89 | 1013.0 |
| 20260502115520 | 67 | 95 | 0.0 | 1.7 | 0.00 | 0.01 | 0.00 | 89 | 1013.1 |
| 20260502115018 | 67 | 95 | 0.0 | 0.0 | 0.00 | 0.01 | 0.00 | 89 | 1013.3 |
| 20260502114514 | 67 | 98 | 0.0 | 0.9 | 0.00 | 0.01 | 0.00 | 89 | 1013.3 |
| 20260502114012 | 67 | 98 | 0.0 | 1.7 | 0.00 | 0.01 | 0.00 | 89 | 1013.3 |
| 20260502113511 | 67 | 98 | 0.0 | 1.7 | 0.00 | 0.01 | 0.00 | 88 | 1013.2 |
| 20260502113010 | 67 | 108 | 0.0 | 1.7 | 0.00 | 0.01 | 0.00 | 89 | 1013.2 |
| 20260502112508 | 67 | 108 | 0.0 | 0.9 | 0.00 | 0.01 | 0.00 | 88 | 1013.2 |
| 20260502112010 | 67 | 109 | 0.0 | 0.9 | 0.00 | 0.01 | 0.00 | 88 | 1013.1 |
| 20260502111508 | 67 | 109 | 0.0 | 0.9 | 0.00 | 0.01 | 0.00 | 88 | 1013.0 |
| 20260502111006 | 67 | 109 | 0.0 | 1.7 | 0.00 | 0.01 | 0.00 | 88 | 1012.8 |
| 20260502110506 | 67 | 109 | 0.0 | 1.7 | 0.00 | 0.01 | 0.00 | 88 | 1012.7 |
| 20260502110007 | 67 | 109 | 0.9 | 1.7 | 0.00 | 0.01 | 0.00 | 88 | 1012.6 |
| 20260502105506 | 67 | 109 | 0.0 | 1.7 | 0.00 | 0.01 | 0.00 | 89 | 1012.6 |
| 20260502105006 | 67 | 109 | 0.0 | 1.7 | 0.00 | 0.01 | 0.00 | 88 | 1012.5 |
| 20260502104506 | 67 | 62 | 0.0 | 0.0 | 0.00 | 0.01 | 0.00 | 88 | 1012.3 |
| 20260502104008 | 67 | 62 | 0.0 | 0.0 | 0.00 | 0.01 | 0.00 | 88 | 1012.3 |
| 20260502103510 | 67 | 62 | 0.0 | 0.9 | 0.00 | 0.01 | 0.00 | 88 | 1012.3 |
| 20260502103010 | 67 | 62 | 0.0 | 0.9 | 0.00 | 0.01 | 0.00 | 88 | 1012.1 |
| 20260502102507 | 67 | 62 | 0.0 | 3.5 | 0.00 | 0.01 | 0.00 | 88 | 1012.2 |
| 20260502102010 | 67 | 62 | 0.0 | 3.5 | 0.00 | 0.01 | 0.00 | 88 | 1012.0 |
| 20260502101505 | 66 | 71 | 1.7 | 3.5 | 0.00 | 0.01 | 0.00 | 88 | 1012.0 |
| 20260502101004 | 66 | 65 | 0.9 | 2.6 | 0.00 | 0.01 | 0.00 | 89 | 1011.9 |
| 20260502100504 | 66 | 54 | 0.0 | 0.0 | 0.00 | 0.01 | 0.00 | 89 | 1011.8 |
| 20260502091502 | 67 | 54 | 0.0 | 0.0 | 0.00 | 0.01 | 0.00 | 90 | 1011.4 |
| 20260502091000 | 67 | 54 | 0.0 | 0.0 | 0.00 | 0.01 | 0.00 | 90 | 1011.4 |
| 20260502090600 | 67 | 54 | 0.0 | 0.0 | 0.00 | 0.01 | 0.00 | 90 | 1011.5 |
| 20260502071049 | 68 | 304 | 0.0 | 1.7 | 0.00 | 0.01 | 0.00 | 91 | 1012.2 |
| 20260502070548 | 68 | 304 | 0.0 | 1.7 | 0.00 | 0.01 | 0.00 | 91 | 1012.3 |
| 20260502070048 | 68 | 311 | 0.0 | 1.7 | 0.00 | 0.01 | 0.00 | 90 | 1012.3 |
| 20260502065549 | 68 | 46 | 0.0 | 0.9 | 0.00 | 0.01 | 0.00 | 90 | 1012.4 |
| 20260502065049 | 68 | 46 | 0.0 | 0.9 | 0.00 | 0.01 | 0.00 | 90 | 1012.6 |
| 20260502064547 | 68 | 46 | 0.0 | 0.9 | 0.00 | 0.01 | 0.00 | 90 | 1012.6 |
| 20260502064046 | 68 | 46 | 0.0 | 0.9 | 0.00 | 0.01 | 0.00 | 90 | 1012.7 |
| 20260502063547 | 68 | 46 | 0.0 | 0.9 | 0.00 | 0.01 | 0.00 | 90 | 1012.5 |
| 20260502063056 | 68 | 46 | 0.0 | 0.0 | 0.00 | 0.01 | 0.00 | 90 | 1012.6 |
| 20260502062545 | 68 | 46 | 0.0 | 0.0 | 0.00 | 0.01 | 0.00 | 90 | 1012.5 |
| 20260502062048 | 68 | 46 | 0.0 | 0.0 | 0.00 | 0.01 | 0.00 | 89 | 1012.5 |
| 20260502061544 | 68 | 46 | 0.0 | 0.9 | 0.00 | 0.01 | 0.00 | 89 | 1012.6 |
| 20260502061047 | 68 | 46 | 0.0 | 0.9 | 0.00 | 0.01 | 0.00 | 90 | 1012.5 |
| 20260502060544 | 68 | 46 | 0.0 | 1.7 | 0.00 | 0.01 | 0.00 | 90 | 1012.6 |
| 20260502060044 | 68 | 46 | 0.0 | 1.7 | 0.00 | 0.01 | 0.01 | 89 | 1012.8 |
| 20260502055542 | 68 | 350 | 0.0 | 0.9 | 0.00 | 0.01 | 0.01 | 89 | 1012.8 |
| 20260502055043 | 68 | 350 | 0.0 | 0.9 | 0.00 | 0.01 | 0.01 | 89 | 1013.0 |
| 20260502054542 | 68 | 304 | 0.0 | 1.7 | 0.00 | 0.01 | 0.01 | 89 | 1013.1 |
| 20260502054043 | 68 | 295 | 0.0 | 1.7 | 0.00 | 0.01 | 0.01 | 89 | 1013.1 |
| 20260502053541 | 68 | 296 | 0.0 | 1.7 | 0.00 | 0.01 | 0.01 | 89 | 1013.2 |
| 20260502053042 | 68 | 302 | 0.0 | 1.7 | 0.00 | 0.01 | 0.01 | 89 | 1013.3 |
| 20260502052541 | 68 | 302 | 0.0 | 3.5 | 0.00 | 0.01 | 0.01 | 89 | 1013.5 |
| 20260502052041 | 69 | 294 | 0.9 | 3.5 | 0.00 | 0.01 | 0.01 | 89 | 1013.5 |
| 20260502051540 | 69 | 263 | 0.0 | 2.6 | 0.00 | 0.01 | 0.01 | 89 | 1013.8 |
| 20260502051040 | 68 | 302 | 0.0 | 2.6 | 0.00 | 0.01 | 0.01 | 89 | 1013.9 |
| 20260502050540 | 68 | 317 | 0.9 | 2.6 | 0.00 | 0.01 | 0.01 | 89 | 1013.9 |
| 20260502050040 | 68 | 305 | 0.9 | 3.5 | 0.00 | 0.01 | 0.01 | 89 | 1014.1 |
| 20260502045541 | 68 | 298 | 0.9 | 3.5 | 0.00 | 0.01 | 0.01 | 89 | 1014.2 |
| 20260502045041 | 68 | 325 | 0.0 | 0.0 | 0.00 | 0.01 | 0.01 | 88 | 1014.2 |
| 20260502044542 | 68 | 325 | 0.0 | 0.0 | 0.00 | 0.01 | 0.01 | 88 | 1014.0 |
| 20260502044041 | 68 | 325 | 0.0 | 0.9 | 0.00 | 0.01 | 0.01 | 88 | 1013.9 |
| 20260502043538 | 68 | 325 | 0.0 | 0.9 | 0.00 | 0.01 | 0.01 | 88 | 1013.9 |
| 20260502043040 | 68 | 325 | 0.0 | 0.0 | 0.00 | 0.01 | 0.01 | 88 | 1013.7 |
| 20260502042538 | 69 | 325 | 0.0 | 0.9 | 0.00 | 0.01 | 0.01 | 88 | 1013.7 |
| 20260502042038 | 69 | 325 | 0.0 | 0.9 | 0.00 | 0.01 | 0.01 | 88 | 1013.8 |
| 20260502041538 | 69 | 325 | 0.0 | 0.9 | 0.00 | 0.01 | 0.01 | 88 | 1013.8 |
| 20260502041037 | 69 | 325 | 0.0 | 1.7 | 0.00 | 0.01 | 0.01 | 87 | 1013.8 |
| 20260502040537 | 69 | 325 | 0.0 | 1.7 | 0.00 | 0.01 | 0.01 | 88 | 1013.8 |
| 20260502040037 | 69 | 5 | 0.0 | 1.7 | 0.00 | 0.01 | 0.01 | 88 | 1013.7 |
| 20260502035536 | 69 | 319 | 0.0 | 3.5 | 0.00 | 0.01 | 0.01 | 88 | 1013.7 |
| 20260502035036 | 69 | 292 | 0.9 | 3.5 | 0.00 | 0.01 | 0.01 | 88 | 1013.7 |
| 20260502034536 | 69 | 323 | 0.9 | 4.3 | 0.00 | 0.01 | 0.01 | 88 | 1013.7 |
| 20260502034035 | 69 | 311 | 1.7 | 4.3 | 0.00 | 0.01 | 0.01 | 88 | 1013.8 |
| 20260502033539 | 69 | 316 | 1.7 | 2.6 | 0.00 | 0.01 | 0.01 | 88 | 1013.8 |
| 20260502033043 | 69 | 310 | 0.9 | 2.6 | 0.00 | 0.01 | 0.01 | 88 | 1013.8 |
| 20260502032535 | 69 | 355 | 0.0 | 2.6 | 0.00 | 0.01 | 0.01 | 88 | 1014.0 |
| 20260502032035 | 69 | 319 | 0.9 | 3.5 | 0.00 | 0.01 | 0.01 | 88 | 1014.1 |
| 20260502031535 | 69 | 333 | 0.9 | 3.5 | 0.00 | 0.01 | 0.01 | 88 | 1014.0 |
| 20260502031035 | 69 | 311 | 0.9 | 5.2 | 0.00 | 0.01 | 0.01 | 88 | 1014.0 |
| 20260502030535 | 69 | 310 | 2.6 | 5.2 | 0.00 | 0.01 | 0.01 | 88 | 1014.0 |
| 20260502030035 | 69 | 314 | 1.7 | 3.5 | 0.00 | 0.01 | 0.01 | 88 | 1014.0 |
| 20260502025534 | 69 | 318 | 1.7 | 3.5 | 0.00 | 0.01 | 0.01 | 88 | 1014.0 |
| 20260502025036 | 69 | 333 | 0.9 | 4.3 | 0.00 | 0.01 | 0.01 | 88 | 1014.0 |
| 20260502024533 | 69 | 312 | 1.7 | 4.3 | 0.00 | 0.01 | 0.01 | 87 | 1014.0 |
| 20260502024032 | 69 | 298 | 0.9 | 2.6 | 0.00 | 0.01 | 0.01 | 87 | 1013.7 |
| 20260502023532 | 69 | 311 | 0.9 | 2.6 | 0.00 | 0.01 | 0.01 | 87 | 1013.5 |
| 20260502023031 | 69 | 317 | 0.9 | 3.5 | 0.00 | 0.01 | 0.01 | 87 | 1013.5 |
| 20260502022533 | 69 | 304 | 0.9 | 2.6 | 0.00 | 0.01 | 0.01 | 87 | 1013.5 |
| 20260502022032 | 69 | 300 | 0.0 | 2.6 | 0.00 | 0.01 | 0.01 | 88 | 1013.3 |
| 20260502021528 | 69 | 312 | 0.9 | 2.6 | 0.00 | 0.01 | 0.01 | 88 | 1013.3 |
| 20260502021028 | 69 | 301 | 0.0 | 2.6 | 0.00 | 0.01 | 0.01 | 88 | 1013.3 |
| 20260502020527 | 69 | 295 | 0.9 | 2.6 | 0.00 | 0.01 | 0.01 | 88 | 1013.1 |
| 20260502020025 | 69 | 298 | 0.9 | 2.6 | 0.00 | 0.01 | 0.01 | 88 | 1012.8 |
| 20260502015525 | 69 | 290 | 1.7 | 3.5 | 0.00 | 0.01 | 0.01 | 88 | 1012.8 |
| 20260502015024 | 69 | 315 | 0.9 | 3.5 | 0.00 | 0.01 | 0.01 | 89 | 1012.5 |
| 20260502014523 | 69 | 317 | 0.0 | 1.7 | 0.00 | 0.01 | 0.01 | 89 | 1012.4 |
| 20260502014022 | 69 | 330 | 0.0 | 1.7 | 0.00 | 0.01 | 0.01 | 90 | 1012.3 |
| 20260502013522 | 69 | 38 | 0.0 | 1.7 | 0.00 | 0.01 | 0.01 | 90 | 1012.1 |
| 20260502013021 | 69 | 72 | 0.0 | 1.7 | 0.00 | 0.01 | 0.01 | 90 | 1012.1 |
| 20260502012521 | 69 | 355 | 0.0 | 1.7 | 0.00 | 0.01 | 0.01 | 90 | 1012.1 |
| 20260502012024 | 69 | 344 | 0.0 | 1.7 | 0.00 | 0.01 | 0.01 | 90 | 1012.1 |
| 20260502011522 | 69 | 5 | 0.0 | 1.7 | 0.00 | 0.01 | 0.01 | 90 | 1012.0 |
| 20260502011020 | 69 | 19 | 0.0 | 2.6 | 0.00 | 0.01 | 0.01 | 90 | 1012.1 |
| 20260502010522 | 69 | 330 | 0.0 | 1.7 | 0.00 | 0.01 | 0.01 | 90 | 1012.0 |
| 20260502010023 | 69 | 316 | 0.0 | 2.6 | 0.00 | 0.01 | 0.01 | 90 | 1012.1 |
| 20260502005520 | 69 | 292 | 0.9 | 2.6 | 0.00 | 0.01 | 0.01 | 90 | 1012.2 |
| 20260502005020 | 69 | 298 | 0.0 | 3.5 | 0.00 | 0.01 | 0.01 | 90 | 1012.1 |
| 20260502004541 | 69 | 291 | 0.9 | 3.5 | 0.00 | 0.01 | 0.01 | 90 | 1011.9 |
| 20260502004018 | 69 | 311 | 0.0 | 3.5 | 0.00 | 0.01 | 0.01 | 90 | 1011.8 |
| 20260502003518 | 69 | 286 | 0.9 | 3.5 | 0.00 | 0.01 | 0.01 | 89 | 1011.6 |
| 20260502003017 | 70 | 301 | 1.7 | 3.5 | 0.00 | 0.01 | 0.01 | 89 | 1011.5 |
| 20260502002517 | 70 | 311 | 0.9 | 4.3 | 0.00 | 0.01 | 0.01 | 89 | 1011.5 |
| 20260502002018 | 70 | 313 | 1.7 | 4.3 | 0.00 | 0.01 | 0.01 | 89 | 1011.3 |
| 20260502001518 | 70 | 274 | 1.7 | 4.3 | 0.00 | 0.01 | 0.01 | 88 | 1011.4 |
| 20260502001017 | 70 | 250 | 0.9 | 3.5 | 0.00 | 0.01 | 0.01 | 88 | 1011.3 |
| 20260502000516 | 70 | 287 | 0.9 | 4.3 | 0.00 | 0.01 | 0.01 | 87 | 1011.1 |
| 20260502000016 | 70 | 269 | 0.9 | 4.3 | 0.00 | 0.01 | 0.01 | 87 | 1010.9 |
| 20260501235518 | 70 | 321 | 1.7 | 4.3 | 0.00 | 0.01 | 0.01 | 87 | 1010.8 |